Time;durP1;ratioP1;P1;durP2;ratioP2;P2;SDS_P1;SDS_P2;PMS_P1;PMS_P2;Temp;Humidity;BMP_temperature;BMP_pressure;BME280_temperature;BME280_humidity;BME280_pressure;Samples;Min_cycle;Max_cycle;Signal;HPM_P1;HPM_P2
2021/11/13 00:00:32;;;;;;;42.5;16.45;;;;;;;4.36;79.69043;95149.78;;;;
2021/11/13 00:01:36;;;;;;;42.5;16.45;;;;;;;4.36;79.69043;95149.78;;;;
2021/11/13 00:02:37;;;;;;;42.5;16.45;;;;;;;4.36;79.69043;95149.78;;;;
2021/11/13 00:03:37;;;;;;;42.5;16.45;;;;;;;4.36;79.69043;95149.78;;;;
2021/11/13 00:04:38;;;;;;;42.5;16.45;;;;;;;4.36;79.69043;95149.78;;;;
2021/11/13 00:05:39;;;;;;;42.5;16.45;;;;;;;4.36;79.69043;95149.78;;;;
2021/11/13 00:06:41;;;;;;;29.55;17.45;;;;;;;4.36;79.85938;95137.77;;;;
2021/11/13 00:07:41;;;;;;;29.55;17.45;;;;;;;4.36;79.85938;95137.77;;;;
2021/11/13 00:08:42;;;;;;;29.55;17.45;;;;;;;4.36;79.85938;95137.77;;;;
2021/11/13 00:09:43;;;;;;;29.55;17.45;;;;;;;4.36;79.85938;95137.77;;;;
2021/11/13 00:10:43;;;;;;;29.55;17.45;;;;;;;4.36;79.85938;95137.77;;;;
2021/11/13 00:11:44;;;;;;;29.55;17.45;;;;;;;4.36;79.85938;95137.77;;;;
2021/11/13 00:12:45;;;;;;;29.55;17.45;;;;;;;4.36;79.85938;95137.77;;;;
2021/11/13 00:13:51;;;;;;;29.55;17.45;;;;;;;4.36;79.85938;95137.77;;;;
2021/11/13 00:14:52;;;;;;;29.55;17.45;;;;;;;4.36;79.85938;95137.77;;;;
2021/11/13 00:15:53;;;;;;;29.55;17.45;;;;;;;4.36;79.85938;95137.77;;;;
2021/11/13 00:16:55;;;;;;;29.55;17.45;;;;;;;4.36;79.85938;95137.77;;;;
2021/11/13 00:17:55;;;;;;;31.7;16.85;;;;;;;4.34;80.01367;95127.78;;;;
2021/11/13 00:18:57;;;;;;;31.7;16.85;;;;;;;4.34;80.01367;95127.78;;;;
2021/11/13 00:19:57;;;;;;;31.7;16.85;;;;;;;4.34;80.01367;95127.78;;;;
2021/11/13 00:20:58;;;;;;;31.7;16.85;;;;;;;4.34;80.01367;95127.78;;;;
2021/11/13 00:21:58;;;;;;;31.7;16.85;;;;;;;4.34;80.01367;95127.78;;;;
2021/11/13 00:22:59;;;;;;;31.7;16.85;;;;;;;4.34;80.01367;95127.78;;;;
2021/11/13 00:24:00;;;;;;;31.7;16.85;;;;;;;4.34;80.01367;95127.78;;;;
2021/11/13 00:25:00;;;;;;;31.7;16.85;;;;;;;4.34;80.01367;95127.78;;;;
2021/11/13 00:26:01;;;;;;;31.7;16.85;;;;;;;4.34;80.01367;95127.78;;;;
2021/11/13 00:27:01;;;;;;;31.7;16.85;;;;;;;4.34;80.01367;95127.78;;;;
2021/11/13 00:28:03;;;;;;;33.3;17.4;;;;;;;4.29;80.12109;95137.34;;;;
2021/11/13 00:29:03;;;;;;;33.3;17.4;;;;;;;4.29;80.12109;95137.34;;;;
2021/11/13 00:30:04;;;;;;;33.3;17.4;;;;;;;4.29;80.12109;95137.34;;;;
2021/11/13 00:31:06;;;;;;;33.3;17.4;;;;;;;4.29;80.12109;95137.34;;;;
2021/11/13 00:32:07;;;;;;;33.3;17.4;;;;;;;4.29;80.12109;95137.34;;;;
2021/11/13 00:33:08;;;;;;;33.3;17.4;;;;;;;4.29;80.12109;95137.34;;;;
2021/11/13 00:34:09;;;;;;;33.3;17.4;;;;;;;4.29;80.12109;95137.34;;;;
2021/11/13 00:35:10;;;;;;;33.3;17.4;;;;;;;4.29;80.12109;95137.34;;;;
2021/11/13 00:36:11;;;;;;;33.3;17.4;;;;;;;4.29;80.12109;95137.34;;;;
2021/11/13 00:37:12;;;;;;;33.3;17.4;;;;;;;4.29;80.12109;95137.34;;;;
2021/11/13 00:38:13;;;;;;;33.3;17.4;;;;;;;4.29;80.12109;95137.34;;;;
2021/11/13 00:39:14;;;;;;;29.15;16.9;;;;;;;4.28;80.26465;95137.55;;;;
2021/11/13 00:40:14;;;;;;;29.15;16.9;;;;;;;4.28;80.26465;95137.55;;;;
2021/11/13 00:41:18;;;;;;;29.15;16.9;;;;;;;4.28;80.26465;95137.55;;;;
2021/11/13 00:42:19;;;;;;;29.15;16.9;;;;;;;4.28;80.26465;95137.55;;;;
2021/11/13 00:43:21;;;;;;;29.15;16.9;;;;;;;4.28;80.26465;95137.55;;;;
2021/11/13 00:44:22;;;;;;;29.15;16.9;;;;;;;4.28;80.26465;95137.55;;;;
2021/11/13 00:45:22;;;;;;;29.15;16.9;;;;;;;4.28;80.26465;95137.55;;;;
2021/11/13 00:46:23;;;;;;;29.15;16.9;;;;;;;4.28;80.26465;95137.55;;;;
2021/11/13 00:47:24;;;;;;;29.15;16.9;;;;;;;4.28;80.26465;95137.55;;;;
2021/11/13 00:48:24;;;;;;;29.15;16.9;;;;;;;4.28;80.26465;95137.55;;;;
2021/11/13 00:49:25;;;;;;;23.7;15.6;;;;;;;4.25;80.29297;95122.3;;;;
2021/11/13 00:50:25;;;;;;;23.7;15.6;;;;;;;4.25;80.29297;95122.3;;;;
2021/11/13 00:51:26;;;;;;;23.7;15.6;;;;;;;4.25;80.29297;95122.3;;;;
2021/11/13 00:52:26;;;;;;;23.7;15.6;;;;;;;4.25;80.29297;95122.3;;;;
2021/11/13 00:53:27;;;;;;;23.7;15.6;;;;;;;4.25;80.29297;95122.3;;;;
2021/11/13 00:54:30;;;;;;;23.7;15.6;;;;;;;4.25;80.29297;95122.3;;;;
2021/11/13 00:55:30;;;;;;;23.7;15.6;;;;;;;4.25;80.29297;95122.3;;;;
2021/11/13 00:56:31;;;;;;;23.7;15.6;;;;;;;4.25;80.29297;95122.3;;;;
2021/11/13 00:57:32;;;;;;;23.7;15.6;;;;;;;4.25;80.29297;95122.3;;;;
2021/11/13 00:58:34;;;;;;;23.7;15.6;;;;;;;4.25;80.29297;95122.3;;;;
2021/11/13 00:59:35;;;;;;;23.7;15.6;;;;;;;4.25;80.29297;95122.3;;;;
2021/11/13 01:00:37;;;;;;;21.45;14.35;;;;;;;4.18;80.37305;95116.96;;;;
2021/11/13 01:01:37;;;;;;;21.45;14.35;;;;;;;4.18;80.37305;95116.96;;;;
2021/11/13 01:02:39;;;;;;;21.45;14.35;;;;;;;4.18;80.37305;95116.96;;;;
2021/11/13 01:03:39;;;;;;;21.45;14.35;;;;;;;4.18;80.37305;95116.96;;;;
2021/11/13 01:04:40;;;;;;;21.45;14.35;;;;;;;4.18;80.37305;95116.96;;;;
2021/11/13 01:05:41;;;;;;;21.45;14.35;;;;;;;4.18;80.37305;95116.96;;;;
2021/11/13 01:06:41;;;;;;;21.45;14.35;;;;;;;4.18;80.37305;95116.96;;;;
2021/11/13 01:07:42;;;;;;;21.45;14.35;;;;;;;4.18;80.37305;95116.96;;;;
2021/11/13 01:08:47;;;;;;;21.45;14.35;;;;;;;4.18;80.37305;95116.96;;;;
2021/11/13 01:09:47;;;;;;;21.45;14.35;;;;;;;4.18;80.37305;95116.96;;;;
2021/11/13 01:10:48;;;;;;;20.1;13.75;;;;;;;4.15;80.41016;95114.28;;;;
2021/11/13 01:11:49;;;;;;;20.1;13.75;;;;;;;4.15;80.41016;95114.28;;;;
2021/11/13 01:12:50;;;;;;;20.1;13.75;;;;;;;4.15;80.41016;95114.28;;;;
2021/11/13 01:13:51;;;;;;;20.1;13.75;;;;;;;4.15;80.41016;95114.28;;;;
2021/11/13 01:14:51;;;;;;;20.1;13.75;;;;;;;4.15;80.41016;95114.28;;;;
2021/11/13 01:15:52;;;;;;;20.1;13.75;;;;;;;4.15;80.41016;95114.28;;;;
2021/11/13 01:16:53;;;;;;;20.1;13.75;;;;;;;4.15;80.41016;95114.28;;;;
2021/11/13 01:17:54;;;;;;;20.1;13.75;;;;;;;4.15;80.41016;95114.28;;;;
2021/11/13 01:18:54;;;;;;;20.1;13.75;;;;;;;4.15;80.41016;95114.28;;;;
2021/11/13 01:19:56;;;;;;;20.1;13.75;;;;;;;4.15;80.41016;95114.28;;;;
2021/11/13 01:20:57;;;;;;;20.1;13.75;;;;;;;4.15;80.41016;95114.28;;;;
2021/11/13 01:21:57;;;;;;;21.6;14.15;;;;;;;4.12;80.3623;95107.06;;;;
2021/11/13 01:22:58;;;;;;;21.6;14.15;;;;;;;4.12;80.3623;95107.06;;;;
2021/11/13 01:24:00;;;;;;;21.6;14.15;;;;;;;4.12;80.3623;95107.06;;;;
2021/11/13 01:25:00;;;;;;;21.6;14.15;;;;;;;4.12;80.3623;95107.06;;;;
2021/11/13 01:26:01;;;;;;;21.6;14.15;;;;;;;4.12;80.3623;95107.06;;;;
2021/11/13 01:27:02;;;;;;;21.6;14.15;;;;;;;4.12;80.3623;95107.06;;;;
2021/11/13 01:28:04;;;;;;;21.6;14.15;;;;;;;4.12;80.3623;95107.06;;;;
2021/11/13 01:29:04;;;;;;;21.6;14.15;;;;;;;4.12;80.3623;95107.06;;;;
2021/11/13 01:30:05;;;;;;;21.6;14.15;;;;;;;4.12;80.3623;95107.06;;;;
2021/11/13 01:31:08;;;;;;;21.6;14.15;;;;;;;4.12;80.3623;95107.06;;;;
2021/11/13 01:32:09;;;;;;;19.55;13.25;;;;;;;4.06;80.38379;95101.2;;;;
2021/11/13 01:33:09;;;;;;;19.55;13.25;;;;;;;4.06;80.38379;95101.2;;;;
2021/11/13 01:34:10;;;;;;;19.55;13.25;;;;;;;4.06;80.38379;95101.2;;;;
2021/11/13 01:35:10;;;;;;;19.55;13.25;;;;;;;4.06;80.38379;95101.2;;;;
2021/11/13 01:36:13;;;;;;;19.55;13.25;;;;;;;4.06;80.38379;95101.2;;;;
2021/11/13 01:37:13;;;;;;;19.55;13.25;;;;;;;4.06;80.38379;95101.2;;;;
2021/11/13 01:38:14;;;;;;;19.55;13.25;;;;;;;4.06;80.38379;95101.2;;;;
2021/11/13 01:39:15;;;;;;;19.55;13.25;;;;;;;4.06;80.38379;95101.2;;;;
2021/11/13 01:40:17;;;;;;;19.55;13.25;;;;;;;4.06;80.38379;95101.2;;;;
2021/11/13 01:41:20;;;;;;;19.55;13.25;;;;;;;4.06;80.38379;95101.2;;;;
2021/11/13 01:42:25;;;;;;;19.55;13.25;;;;;;;4.06;80.38379;95101.2;;;;
2021/11/13 01:43:28;;;;;;;19.8;12.55;;;;;;;3.97;80.39746;95084.63;;;;
2021/11/13 01:44:32;;;;;;;19.8;12.55;;;;;;;3.97;80.39746;95084.63;;;;
2021/11/13 01:45:33;;;;;;;19.8;12.55;;;;;;;3.97;80.39746;95084.63;;;;
2021/11/13 01:46:34;;;;;;;19.8;12.55;;;;;;;3.97;80.39746;95084.63;;;;
2021/11/13 01:47:36;;;;;;;19.8;12.55;;;;;;;3.97;80.39746;95084.63;;;;
2021/11/13 01:48:37;;;;;;;19.8;12.55;;;;;;;3.97;80.39746;95084.63;;;;
2021/11/13 01:49:38;;;;;;;19.8;12.55;;;;;;;3.97;80.39746;95084.63;;;;
2021/11/13 01:50:38;;;;;;;19.8;12.55;;;;;;;3.97;80.39746;95084.63;;;;
2021/11/13 01:51:45;;;;;;;19.8;12.55;;;;;;;3.97;80.39746;95084.63;;;;
2021/11/13 01:52:46;;;;;;;19.8;12.55;;;;;;;3.97;80.39746;95084.63;;;;
2021/11/13 01:53:47;;;;;;;18.05;13.25;;;;;;;3.88;80.4541;95073.81;;;;
2021/11/13 01:54:51;;;;;;;18.05;13.25;;;;;;;3.88;80.4541;95073.81;;;;
2021/11/13 01:55:54;;;;;;;18.05;13.25;;;;;;;3.88;80.4541;95073.81;;;;
2021/11/13 01:56:55;;;;;;;18.05;13.25;;;;;;;3.88;80.4541;95073.81;;;;
2021/11/13 01:57:56;;;;;;;18.05;13.25;;;;;;;3.88;80.4541;95073.81;;;;
2021/11/13 01:58:57;;;;;;;18.05;13.25;;;;;;;3.88;80.4541;95073.81;;;;
2021/11/13 01:59:59;;;;;;;18.05;13.25;;;;;;;3.88;80.4541;95073.81;;;;
2021/11/13 02:01:00;;;;;;;18.05;13.25;;;;;;;3.88;80.4541;95073.81;;;;
2021/11/13 02:02:00;;;;;;;18.05;13.25;;;;;;;3.88;80.4541;95073.81;;;;
2021/11/13 02:03:01;;;;;;;18.05;13.25;;;;;;;3.88;80.4541;95073.81;;;;
2021/11/13 02:04:02;;;;;;;20.5;12.35;;;;;;;3.76;80.59863;95075;;;;
2021/11/13 02:05:04;;;;;;;20.5;12.35;;;;;;;3.76;80.59863;95075;;;;
2021/11/13 02:06:05;;;;;;;20.5;12.35;;;;;;;3.76;80.59863;95075;;;;
2021/11/13 02:07:05;;;;;;;20.5;12.35;;;;;;;3.76;80.59863;95075;;;;
2021/11/13 02:08:06;;;;;;;20.5;12.35;;;;;;;3.76;80.59863;95075;;;;
2021/11/13 02:09:07;;;;;;;20.5;12.35;;;;;;;3.76;80.59863;95075;;;;
2021/11/13 02:10:08;;;;;;;20.5;12.35;;;;;;;3.76;80.59863;95075;;;;
2021/11/13 02:11:11;;;;;;;20.5;12.35;;;;;;;3.76;80.59863;95075;;;;
2021/11/13 02:12:13;;;;;;;20.5;12.35;;;;;;;3.76;80.59863;95075;;;;
2021/11/13 02:13:14;;;;;;;20.5;12.35;;;;;;;3.76;80.59863;95075;;;;
2021/11/13 02:14:15;;;;;;;20.5;12.35;;;;;;;3.76;80.59863;95075;;;;
2021/11/13 02:15:15;;;;;;;26.3;12.95;;;;;;;3.66;80.83301;95071.77;;;;
2021/11/13 02:16:16;;;;;;;26.3;12.95;;;;;;;3.66;80.83301;95071.77;;;;
2021/11/13 02:17:17;;;;;;;26.3;12.95;;;;;;;3.66;80.83301;95071.77;;;;
2021/11/13 02:18:18;;;;;;;26.3;12.95;;;;;;;3.66;80.83301;95071.77;;;;
2021/11/13 02:19:19;;;;;;;26.3;12.95;;;;;;;3.66;80.83301;95071.77;;;;
2021/11/13 02:20:19;;;;;;;26.3;12.95;;;;;;;3.66;80.83301;95071.77;;;;
2021/11/13 02:21:26;;;;;;;26.3;12.95;;;;;;;3.66;80.83301;95071.77;;;;
2021/11/13 02:22:26;;;;;;;26.3;12.95;;;;;;;3.66;80.83301;95071.77;;;;
2021/11/13 02:23:27;;;;;;;26.3;12.95;;;;;;;3.66;80.83301;95071.77;;;;
2021/11/13 02:24:28;;;;;;;26.3;12.95;;;;;;;3.66;80.83301;95071.77;;;;
2021/11/13 02:25:28;;;;;;;21.45;11.5;;;;;;;3.6;80.90527;95069.47;;;;
2021/11/13 02:26:31;;;;;;;21.45;11.5;;;;;;;3.6;80.90527;95069.47;;;;
2021/11/13 02:27:32;;;;;;;21.45;11.5;;;;;;;3.6;80.90527;95069.47;;;;
2021/11/13 02:28:35;;;;;;;21.45;11.5;;;;;;;3.6;80.90527;95069.47;;;;
2021/11/13 02:29:37;;;;;;;21.45;11.5;;;;;;;3.6;80.90527;95069.47;;;;
2021/11/13 02:30:38;;;;;;;21.45;11.5;;;;;;;3.6;80.90527;95069.47;;;;
2021/11/13 02:31:40;;;;;;;21.45;11.5;;;;;;;3.6;80.90527;95069.47;;;;
2021/11/13 02:32:44;;;;;;;21.45;11.5;;;;;;;3.6;80.90527;95069.47;;;;
2021/11/13 02:33:45;;;;;;;21.45;11.5;;;;;;;3.6;80.90527;95069.47;;;;
2021/11/13 02:34:46;;;;;;;21.45;11.5;;;;;;;3.6;80.90527;95069.47;;;;
2021/11/13 02:35:46;;;;;;;24.2;12.8;;;;;;;3.57;81.01758;95073.38;;;;
2021/11/13 02:36:48;;;;;;;24.2;12.8;;;;;;;3.57;81.01758;95073.38;;;;
2021/11/13 02:37:49;;;;;;;24.2;12.8;;;;;;;3.57;81.01758;95073.38;;;;
2021/11/13 02:38:55;;;;;;;24.2;12.8;;;;;;;3.57;81.01758;95073.38;;;;
2021/11/13 02:39:56;;;;;;;24.2;12.8;;;;;;;3.57;81.01758;95073.38;;;;
2021/11/13 02:40:58;;;;;;;24.2;12.8;;;;;;;3.57;81.01758;95073.38;;;;
2021/11/13 02:42:01;;;;;;;24.2;12.8;;;;;;;3.57;81.01758;95073.38;;;;
2021/11/13 02:43:02;;;;;;;24.2;12.8;;;;;;;3.57;81.01758;95073.38;;;;
2021/11/13 02:44:03;;;;;;;24.2;12.8;;;;;;;3.57;81.01758;95073.38;;;;
2021/11/13 02:45:05;;;;;;;24.2;12.8;;;;;;;3.57;81.01758;95073.38;;;;
2021/11/13 02:46:09;;;;;;;24.2;12.8;;;;;;;3.57;81.01758;95073.38;;;;
2021/11/13 02:47:10;;;;;;;38.3;12.35;;;;;;;3.57;80.98438;95078.3;;;;
2021/11/13 02:48:11;;;;;;;38.3;12.35;;;;;;;3.57;80.98438;95078.3;;;;
2021/11/13 02:49:14;;;;;;;38.3;12.35;;;;;;;3.57;80.98438;95078.3;;;;
2021/11/13 02:50:15;;;;;;;38.3;12.35;;;;;;;3.57;80.98438;95078.3;;;;
2021/11/13 02:51:17;;;;;;;38.3;12.35;;;;;;;3.57;80.98438;95078.3;;;;
2021/11/13 02:52:18;;;;;;;38.3;12.35;;;;;;;3.57;80.98438;95078.3;;;;
2021/11/13 02:53:19;;;;;;;38.3;12.35;;;;;;;3.57;80.98438;95078.3;;;;
2021/11/13 02:54:22;;;;;;;38.3;12.35;;;;;;;3.57;80.98438;95078.3;;;;
2021/11/13 02:55:22;;;;;;;38.3;12.35;;;;;;;3.57;80.98438;95078.3;;;;
2021/11/13 02:56:24;;;;;;;38.3;12.35;;;;;;;3.57;80.98438;95078.3;;;;
2021/11/13 02:57:25;;;;;;;126.15;14.2;;;;;;;3.57;80.99414;95072.13;;;;
2021/11/13 02:58:25;;;;;;;126.15;14.2;;;;;;;3.57;80.99414;95072.13;;;;
2021/11/13 02:59:26;;;;;;;126.15;14.2;;;;;;;3.57;80.99414;95072.13;;;;
2021/11/13 03:00:26;;;;;;;126.15;14.2;;;;;;;3.57;80.99414;95072.13;;;;
2021/11/13 03:01:28;;;;;;;126.15;14.2;;;;;;;3.57;80.99414;95072.13;;;;
2021/11/13 03:02:29;;;;;;;126.15;14.2;;;;;;;3.57;80.99414;95072.13;;;;
2021/11/13 03:03:29;;;;;;;126.15;14.2;;;;;;;3.57;80.99414;95072.13;;;;
2021/11/13 03:04:30;;;;;;;126.15;14.2;;;;;;;3.57;80.99414;95072.13;;;;
2021/11/13 03:05:30;;;;;;;126.15;14.2;;;;;;;3.57;80.99414;95072.13;;;;
2021/11/13 03:06:34;;;;;;;126.15;14.2;;;;;;;3.57;80.99414;95072.13;;;;
2021/11/13 03:07:34;;;;;;;126.15;14.2;;;;;;;3.57;80.99414;95072.13;;;;
2021/11/13 03:08:35;;;;;;;93.09999;13.4;;;;;;;3.53;80.99805;95080.63;;;;
2021/11/13 03:09:36;;;;;;;93.09999;13.4;;;;;;;3.53;80.99805;95080.63;;;;
2021/11/13 03:10:36;;;;;;;93.09999;13.4;;;;;;;3.53;80.99805;95080.63;;;;
2021/11/13 03:11:37;;;;;;;93.09999;13.4;;;;;;;3.53;80.99805;95080.63;;;;
2021/11/13 03:12:38;;;;;;;93.09999;13.4;;;;;;;3.53;80.99805;95080.63;;;;
2021/11/13 03:13:38;;;;;;;93.09999;13.4;;;;;;;3.53;80.99805;95080.63;;;;
2021/11/13 03:14:42;;;;;;;93.09999;13.4;;;;;;;3.53;80.99805;95080.63;;;;
2021/11/13 03:15:42;;;;;;;93.09999;13.4;;;;;;;3.53;80.99805;95080.63;;;;
2021/11/13 03:16:43;;;;;;;93.09999;13.4;;;;;;;3.53;80.99805;95080.63;;;;
2021/11/13 03:17:43;;;;;;;93.09999;13.4;;;;;;;3.53;80.99805;95080.63;;;;
2021/11/13 03:18:45;;;;;;;51.00001;13.1;;;;;;;3.51;81.10938;95084;;;;
2021/11/13 03:19:46;;;;;;;51.00001;13.1;;;;;;;3.51;81.10938;95084;;;;
2021/11/13 03:20:47;;;;;;;51.00001;13.1;;;;;;;3.51;81.10938;95084;;;;
2021/11/13 03:21:48;;;;;;;51.00001;13.1;;;;;;;3.51;81.10938;95084;;;;
2021/11/13 03:22:49;;;;;;;51.00001;13.1;;;;;;;3.51;81.10938;95084;;;;
2021/11/13 03:23:50;;;;;;;51.00001;13.1;;;;;;;3.51;81.10938;95084;;;;
2021/11/13 03:24:50;;;;;;;51.00001;13.1;;;;;;;3.51;81.10938;95084;;;;
2021/11/13 03:25:51;;;;;;;51.00001;13.1;;;;;;;3.51;81.10938;95084;;;;
2021/11/13 03:26:56;;;;;;;51.00001;13.1;;;;;;;3.51;81.10938;95084;;;;
2021/11/13 03:28:00;;;;;;;51.00001;13.1;;;;;;;3.51;81.10938;95084;;;;
2021/11/13 03:29:03;;;;;;;51.00001;13.1;;;;;;;3.51;81.10938;95084;;;;
2021/11/13 03:30:09;;;;;;;103.4;14.3;;;;;;;3.51;81.2041;95084;;;;
2021/11/13 03:31:11;;;;;;;103.4;14.3;;;;;;;3.51;81.2041;95084;;;;
2021/11/13 03:32:11;;;;;;;103.4;14.3;;;;;;;3.51;81.2041;95084;;;;
2021/11/13 03:33:12;;;;;;;103.4;14.3;;;;;;;3.51;81.2041;95084;;;;
2021/11/13 03:34:13;;;;;;;103.4;14.3;;;;;;;3.51;81.2041;95084;;;;
2021/11/13 03:35:16;;;;;;;103.4;14.3;;;;;;;3.51;81.2041;95084;;;;
2021/11/13 03:36:19;;;;;;;103.4;14.3;;;;;;;3.51;81.2041;95084;;;;
2021/11/13 03:37:20;;;;;;;103.4;14.3;;;;;;;3.51;81.2041;95084;;;;
2021/11/13 03:38:21;;;;;;;103.4;14.3;;;;;;;3.51;81.2041;95084;;;;
2021/11/13 03:39:22;;;;;;;103.4;14.3;;;;;;;3.51;81.2041;95084;;;;
2021/11/13 03:40:23;;;;;;;92.90001;14.65;;;;;;;3.52;81.2793;95082.5;;;;
2021/11/13 03:41:24;;;;;;;92.90001;14.65;;;;;;;3.52;81.2793;95082.5;;;;
2021/11/13 03:42:27;;;;;;;92.90001;14.65;;;;;;;3.52;81.2793;95082.5;;;;
2021/11/13 03:43:28;;;;;;;92.90001;14.65;;;;;;;3.52;81.2793;95082.5;;;;
2021/11/13 03:44:28;;;;;;;92.90001;14.65;;;;;;;3.52;81.2793;95082.5;;;;
2021/11/13 03:45:29;;;;;;;92.90001;14.65;;;;;;;3.52;81.2793;95082.5;;;;
2021/11/13 03:46:29;;;;;;;92.90001;14.65;;;;;;;3.52;81.2793;95082.5;;;;
2021/11/13 03:47:30;;;;;;;92.90001;14.65;;;;;;;3.52;81.2793;95082.5;;;;
2021/11/13 03:48:30;;;;;;;92.90001;14.65;;;;;;;3.52;81.2793;95082.5;;;;
2021/11/13 03:49:31;;;;;;;92.90001;14.65;;;;;;;3.52;81.2793;95082.5;;;;
2021/11/13 03:50:32;;;;;;;48.94999;13.15;;;;;;;3.53;81.29199;95078.38;;;;
2021/11/13 03:51:32;;;;;;;48.94999;13.15;;;;;;;3.53;81.29199;95078.38;;;;
2021/11/13 03:52:33;;;;;;;48.94999;13.15;;;;;;;3.53;81.29199;95078.38;;;;
2021/11/13 03:53:34;;;;;;;48.94999;13.15;;;;;;;3.53;81.29199;95078.38;;;;
2021/11/13 03:54:37;;;;;;;48.94999;13.15;;;;;;;3.53;81.29199;95078.38;;;;
2021/11/13 03:55:37;;;;;;;48.94999;13.15;;;;;;;3.53;81.29199;95078.38;;;;
2021/11/13 03:56:38;;;;;;;48.94999;13.15;;;;;;;3.53;81.29199;95078.38;;;;
2021/11/13 03:57:38;;;;;;;48.94999;13.15;;;;;;;3.53;81.29199;95078.38;;;;
2021/11/13 03:58:39;;;;;;;48.94999;13.15;;;;;;;3.53;81.29199;95078.38;;;;
2021/11/13 03:59:40;;;;;;;48.94999;13.15;;;;;;;3.53;81.29199;95078.38;;;;
2021/11/13 04:00:40;;;;;;;48.94999;13.15;;;;;;;3.53;81.29199;95078.38;;;;
2021/11/13 04:01:41;;;;;;;61.90001;12.7;;;;;;;3.49;81.36035;95092.21;;;;
2021/11/13 04:02:44;;;;;;;61.90001;12.7;;;;;;;3.49;81.36035;95092.21;;;;
2021/11/13 04:03:45;;;;;;;61.90001;12.7;;;;;;;3.49;81.36035;95092.21;;;;
2021/11/13 04:04:45;;;;;;;61.90001;12.7;;;;;;;3.49;81.36035;95092.21;;;;
2021/11/13 04:05:46;;;;;;;61.90001;12.7;;;;;;;3.49;81.36035;95092.21;;;;
2021/11/13 04:06:47;;;;;;;61.90001;12.7;;;;;;;3.49;81.36035;95092.21;;;;
2021/11/13 04:07:47;;;;;;;61.90001;12.7;;;;;;;3.49;81.36035;95092.21;;;;
2021/11/13 04:08:49;;;;;;;61.90001;12.7;;;;;;;3.49;81.36035;95092.21;;;;
2021/11/13 04:09:49;;;;;;;61.90001;12.7;;;;;;;3.49;81.36035;95092.21;;;;
2021/11/13 04:10:50;;;;;;;61.90001;12.7;;;;;;;3.49;81.36035;95092.21;;;;
2021/11/13 04:11:51;;;;;;;91.24998;14.4;;;;;;;3.45;81.44531;95097.62;;;;
2021/11/13 04:12:51;;;;;;;91.24998;14.4;;;;;;;3.45;81.44531;95097.62;;;;
2021/11/13 04:13:52;;;;;;;91.24998;14.4;;;;;;;3.45;81.44531;95097.62;;;;
2021/11/13 04:14:52;;;;;;;91.24998;14.4;;;;;;;3.45;81.44531;95097.62;;;;
2021/11/13 04:15:53;;;;;;;91.24998;14.4;;;;;;;3.45;81.44531;95097.62;;;;
2021/11/13 04:16:53;;;;;;;91.24998;14.4;;;;;;;3.45;81.44531;95097.62;;;;
2021/11/13 04:17:54;;;;;;;91.24998;14.4;;;;;;;3.45;81.44531;95097.62;;;;
2021/11/13 04:18:55;;;;;;;91.24998;14.4;;;;;;;3.45;81.44531;95097.62;;;;
2021/11/13 04:19:55;;;;;;;91.24998;14.4;;;;;;;3.45;81.44531;95097.62;;;;
2021/11/13 04:20:56;;;;;;;91.24998;14.4;;;;;;;3.45;81.44531;95097.62;;;;
2021/11/13 04:21:57;;;;;;;91.24998;14.4;;;;;;;3.45;81.44531;95097.62;;;;
2021/11/13 04:22:57;;;;;;;160.3;15.5;;;;;;;3.49;81.50586;95116.76;;;;
2021/11/13 04:23:58;;;;;;;160.3;15.5;;;;;;;3.49;81.50586;95116.76;;;;
2021/11/13 04:24:59;;;;;;;160.3;15.5;;;;;;;3.49;81.50586;95116.76;;;;
2021/11/13 04:25:59;;;;;;;160.3;15.5;;;;;;;3.49;81.50586;95116.76;;;;
2021/11/13 04:27:00;;;;;;;160.3;15.5;;;;;;;3.49;81.50586;95116.76;;;;
2021/11/13 04:28:00;;;;;;;160.3;15.5;;;;;;;3.49;81.50586;95116.76;;;;
2021/11/13 04:29:01;;;;;;;160.3;15.5;;;;;;;3.49;81.50586;95116.76;;;;
2021/11/13 04:30:02;;;;;;;160.3;15.5;;;;;;;3.49;81.50586;95116.76;;;;
2021/11/13 04:31:03;;;;;;;160.3;15.5;;;;;;;3.49;81.50586;95116.76;;;;
2021/11/13 04:32:04;;;;;;;160.3;15.5;;;;;;;3.49;81.50586;95116.76;;;;
2021/11/13 04:33:05;;;;;;;65.25;13.6;;;;;;;3.45;81.4668;95122.58;;;;
2021/11/13 04:34:08;;;;;;;65.25;13.6;;;;;;;3.45;81.4668;95122.58;;;;
2021/11/13 04:35:35;;;;;;;65.25;13.6;;;;;;;3.45;81.4668;95122.58;;;;
2021/11/13 04:36:38;;;;;;;65.25;13.6;;;;;;;3.45;81.4668;95122.58;;;;
2021/11/13 04:37:39;;;;;;;65.25;13.6;;;;;;;3.45;81.4668;95122.58;;;;
2021/11/13 04:38:39;;;;;;;65.25;13.6;;;;;;;3.45;81.4668;95122.58;;;;
2021/11/13 04:39:40;;;;;;;65.25;13.6;;;;;;;3.45;81.4668;95122.58;;;;
2021/11/13 04:40:41;;;;;;;65.25;13.6;;;;;;;3.45;81.4668;95122.58;;;;
2021/11/13 04:41:41;;;;;;;65.25;13.6;;;;;;;3.45;81.4668;95122.58;;;;
2021/11/13 04:42:42;;;;;;;65.25;13.6;;;;;;;3.45;81.4668;95122.58;;;;
2021/11/13 04:43:43;;;;;;;65.25;13.6;;;;;;;3.45;81.4668;95122.58;;;;
2021/11/13 04:44:43;;;;;;;103.15;14.25;;;;;;;3.42;81.65039;95127.37;;;;
2021/11/13 04:45:45;;;;;;;103.15;14.25;;;;;;;3.42;81.65039;95127.37;;;;
2021/11/13 04:46:46;;;;;;;103.15;14.25;;;;;;;3.42;81.65039;95127.37;;;;
2021/11/13 04:47:46;;;;;;;103.15;14.25;;;;;;;3.42;81.65039;95127.37;;;;
2021/11/13 04:48:48;;;;;;;103.15;14.25;;;;;;;3.42;81.65039;95127.37;;;;
2021/11/13 04:49:48;;;;;;;103.15;14.25;;;;;;;3.42;81.65039;95127.37;;;;
2021/11/13 04:50:49;;;;;;;103.15;14.25;;;;;;;3.42;81.65039;95127.37;;;;
2021/11/13 04:51:49;;;;;;;103.15;14.25;;;;;;;3.42;81.65039;95127.37;;;;
2021/11/13 04:52:50;;;;;;;103.15;14.25;;;;;;;3.42;81.65039;95127.37;;;;
2021/11/13 04:53:51;;;;;;;103.15;14.25;;;;;;;3.42;81.65039;95127.37;;;;
2021/11/13 04:54:52;;;;;;;39.9;12.95;;;;;;;3.41;81.74121;95136.5;;;;
2021/11/13 04:55:52;;;;;;;39.9;12.95;;;;;;;3.41;81.74121;95136.5;;;;
2021/11/13 04:56:53;;;;;;;39.9;12.95;;;;;;;3.41;81.74121;95136.5;;;;
2021/11/13 04:57:54;;;;;;;39.9;12.95;;;;;;;3.41;81.74121;95136.5;;;;
2021/11/13 04:58:56;;;;;;;39.9;12.95;;;;;;;3.41;81.74121;95136.5;;;;
2021/11/13 04:59:56;;;;;;;39.9;12.95;;;;;;;3.41;81.74121;95136.5;;;;
2021/11/13 05:00:57;;;;;;;39.9;12.95;;;;;;;3.41;81.74121;95136.5;;;;
2021/11/13 05:01:57;;;;;;;39.9;12.95;;;;;;;3.41;81.74121;95136.5;;;;
2021/11/13 05:02:58;;;;;;;39.9;12.95;;;;;;;3.41;81.74121;95136.5;;;;
2021/11/13 05:04:00;;;;;;;39.9;12.95;;;;;;;3.41;81.74121;95136.5;;;;
2021/11/13 05:05:00;;;;;;;39.9;12.95;;;;;;;3.41;81.74121;95136.5;;;;
2021/11/13 05:06:02;;;;;;;93.64999;15.3;;;;;;;3.4;81.84473;95145.54;;;;
2021/11/13 05:07:02;;;;;;;93.64999;15.3;;;;;;;3.4;81.84473;95145.54;;;;
2021/11/13 05:08:03;;;;;;;93.64999;15.3;;;;;;;3.4;81.84473;95145.54;;;;
2021/11/13 05:09:05;;;;;;;93.64999;15.3;;;;;;;3.4;81.84473;95145.54;;;;
2021/11/13 05:10:06;;;;;;;93.64999;15.3;;;;;;;3.4;81.84473;95145.54;;;;
2021/11/13 05:11:08;;;;;;;93.64999;15.3;;;;;;;3.4;81.84473;95145.54;;;;
2021/11/13 05:12:08;;;;;;;93.64999;15.3;;;;;;;3.4;81.84473;95145.54;;;;
2021/11/13 05:13:09;;;;;;;93.64999;15.3;;;;;;;3.4;81.84473;95145.54;;;;
2021/11/13 05:14:09;;;;;;;93.64999;15.3;;;;;;;3.4;81.84473;95145.54;;;;
2021/11/13 05:15:10;;;;;;;93.64999;15.3;;;;;;;3.4;81.84473;95145.54;;;;
2021/11/13 05:16:11;;;;;;;143.45;16.15;;;;;;;3.37;81.88086;95156.08;;;;
2021/11/13 05:17:11;;;;;;;143.45;16.15;;;;;;;3.37;81.88086;95156.08;;;;
2021/11/13 05:18:13;;;;;;;143.45;16.15;;;;;;;3.37;81.88086;95156.08;;;;
2021/11/13 05:19:14;;;;;;;143.45;16.15;;;;;;;3.37;81.88086;95156.08;;;;
2021/11/13 05:20:14;;;;;;;143.45;16.15;;;;;;;3.37;81.88086;95156.08;;;;
2021/11/13 05:21:18;;;;;;;143.45;16.15;;;;;;;3.37;81.88086;95156.08;;;;
2021/11/13 05:22:18;;;;;;;143.45;16.15;;;;;;;3.37;81.88086;95156.08;;;;
2021/11/13 05:23:19;;;;;;;143.45;16.15;;;;;;;3.37;81.88086;95156.08;;;;
2021/11/13 05:24:20;;;;;;;143.45;16.15;;;;;;;3.37;81.88086;95156.08;;;;
2021/11/13 05:25:20;;;;;;;143.45;16.15;;;;;;;3.37;81.88086;95156.08;;;;
2021/11/13 05:26:22;;;;;;;143.45;16.15;;;;;;;3.37;81.88086;95156.08;;;;
2021/11/13 05:27:23;;;;;;;104.3;15;;;;;;;3.4;81.96191;95150.76;;;;
2021/11/13 05:28:23;;;;;;;104.3;15;;;;;;;3.4;81.96191;95150.76;;;;
2021/11/13 05:29:24;;;;;;;104.3;15;;;;;;;3.4;81.96191;95150.76;;;;
2021/11/13 05:30:25;;;;;;;104.3;15;;;;;;;3.4;81.96191;95150.76;;;;
2021/11/13 05:31:27;;;;;;;104.3;15;;;;;;;3.4;81.96191;95150.76;;;;
2021/11/13 05:32:29;;;;;;;104.3;15;;;;;;;3.4;81.96191;95150.76;;;;
2021/11/13 05:33:30;;;;;;;104.3;15;;;;;;;3.4;81.96191;95150.76;;;;
2021/11/13 05:34:31;;;;;;;104.3;15;;;;;;;3.4;81.96191;95150.76;;;;
2021/11/13 05:35:32;;;;;;;104.3;15;;;;;;;3.4;81.96191;95150.76;;;;
2021/11/13 05:36:32;;;;;;;104.3;15;;;;;;;3.4;81.96191;95150.76;;;;
2021/11/13 05:37:33;;;;;;;43.6;15;;;;;;;3.44;81.88477;95169.37;;;;
2021/11/13 05:38:34;;;;;;;43.6;15;;;;;;;3.44;81.88477;95169.37;;;;
2021/11/13 05:39:36;;;;;;;43.6;15;;;;;;;3.44;81.88477;95169.37;;;;
2021/11/13 05:40:36;;;;;;;43.6;15;;;;;;;3.44;81.88477;95169.37;;;;
2021/11/13 05:41:37;;;;;;;43.6;15;;;;;;;3.44;81.88477;95169.37;;;;
2021/11/13 05:42:38;;;;;;;43.6;15;;;;;;;3.44;81.88477;95169.37;;;;
2021/11/13 05:43:39;;;;;;;43.6;15;;;;;;;3.44;81.88477;95169.37;;;;
2021/11/13 05:44:40;;;;;;;43.6;15;;;;;;;3.44;81.88477;95169.37;;;;
2021/11/13 05:45:41;;;;;;;43.6;15;;;;;;;3.44;81.88477;95169.37;;;;